Time;durP1;ratioP1;P1;durP2;ratioP2;P2;SDS_P1;SDS_P2;PMS_P1;PMS_P2;Temp;Humidity;BMP_temperature;BMP_pressure;BME280_temperature;BME280_humidity;BME280_pressure;Samples;Min_cycle;Max_cycle;Signal;HPM_P1;HPM_P2
2021/07/12 00:00:36;;;;;;;14.30;12.80;;;;;;;16.55;89.30;96071.03;3592372;39;20156;-65
2021/07/12 00:03:06;;;;;;;14.40;12.95;;;;;;;16.49;89.46;96080.97;3582687;40;20041;-65
2021/07/12 00:05:35;;;;;;;15.80;12.57;;;;;;;16.49;89.19;96078.31;3591795;39;20041;-65
2021/07/12 00:08:03;;;;;;;15.90;14.45;;;;;;;16.49;89.32;96083.63;3575519;40;20047;-65
2021/07/12 00:10:31;;;;;;;14.85;13.50;;;;;;;16.43;89.57;96087.47;3576964;40;20046;-65
2021/07/12 00:12:59;;;;;;;14.85;13.32;;;;;;;16.39;89.46;96086.44;3584113;40;20074;-65
2021/07/12 00:15:29;;;;;;;15.20;13.68;;;;;;;16.37;89.07;96091.25;3584565;40;20059;-65
2021/07/12 00:17:57;;;;;;;14.95;13.35;;;;;;;16.37;89.98;96099.25;3584070;40;20227;-65
2021/07/12 00:20:26;;;;;;;14.35;12.70;;;;;;;16.37;90.40;96099.25;3575241;40;20056;-65
2021/07/12 00:22:55;;;;;;;14.13;12.68;;;;;;;16.37;90.45;96093.94;3580085;40;20048;-64
2021/07/12 00:25:25;;;;;;;17.48;13.73;;;;;;;16.37;90.91;96088.59;3583306;40;20040;-65
2021/07/12 00:27:53;;;;;;;15.02;13.05;;;;;;;16.39;90.34;96083.78;3584330;40;20058;-65
2021/07/12 00:30:22;;;;;;;15.55;13.98;;;;;;;16.37;90.44;96075.28;3582564;40;20044;-65
2021/07/12 00:32:53;;;;;;;15.45;13.82;;;;;;;16.34;90.81;96089.97;3575134;40;20052;-65
2021/07/12 00:35:23;;;;;;;19.13;14.82;;;;;;;16.31;90.19;96095.09;3584618;40;20047;-65
2021/07/12 00:37:52;;;;;;;14.95;13.40;;;;;;;16.23;89.81;96102.63;3590386;39;20045;-65
2021/07/12 00:40:22;;;;;;;16.98;14.57;;;;;;;16.23;89.90;96105.28;3591296;39;20046;-65
2021/07/12 00:42:50;;;;;;;15.68;14.07;;;;;;;16.16;90.65;96098.72;3583765;40;20056;-65
2021/07/12 00:45:22;;;;;;;16.60;12.93;;;;;;;16.16;90.80;96096.88;3582269;40;20049;-65
2021/07/12 00:47:51;;;;;;;17.02;15.23;;;;;;;16.11;90.51;96079.13;3573585;40;20048;-65
2021/07/12 00:50:21;;;;;;;15.75;14.10;;;;;;;16.11;90.29;96086.28;3582027;40;20054;-65
2021/07/12 00:52:50;;;;;;;15.52;13.98;;;;;;;16.11;90.08;96091.63;3574406;40;20404;-65
2021/07/12 00:55:29;;;;;;;15.63;14.00;;;;;;;16.08;89.86;96086.84;3581946;40;20317;-65
2021/07/12 00:58:00;;;;;;;15.02;13.50;;;;;;;16.06;89.87;96087.16;3574462;40;20678;-65
2021/07/12 01:00:28;;;;;;;14.80;13.30;;;;;;;16.05;89.81;96076.81;3582686;40;20697;-65
2021/07/12 01:02:56;;;;;;;17.00;13.65;;;;;;;16.01;89.50;96087.22;3592009;39;20059;-65
2021/07/12 01:05:29;;;;;;;15.75;14.13;;;;;;;15.91;89.88;96088.16;3583948;40;20044;-65
2021/07/12 01:07:59;;;;;;;13.98;12.73;;;;;;;15.87;89.97;96087.13;3574011;40;20310;-65
2021/07/12 01:10:33;;;;;;;19.20;14.73;;;;;;;15.85;90.35;96078.63;3575383;40;20071;-65
2021/07/12 01:13:19;;;;;;;16.35;14.70;;;;;;;15.81;90.47;96072.28;3587602;39;20132;-65
2021/07/12 01:16:15;;;;;;;16.10;14.48;;;;;;;15.81;90.63;96081.06;3584900;40;20532;-65
2021/07/12 01:19:22;;;;;;;19.80;14.30;;;;;;;15.80;90.02;96071.47;3574345;40;20050;-65
2021/07/12 01:22:12;;;;;;;14.32;12.82;;;;;;;15.79;89.95;96072.56;3575405;40;20079;-64
2021/07/12 01:25:03;;;;;;;14.57;13.23;;;;;;;15.78;89.68;96075.50;3585748;40;20045;-64
2021/07/12 01:27:49;;;;;;;15.45;13.90;;;;;;;15.74;89.46;96077.16;3587015;40;20058;-64
2021/07/12 01:30:41;;;;;;;15.63;12.38;;;;;;;15.68;89.52;96079.88;3584720;40;20340;-64
2021/07/12 01:33:17;;;;;;;15.93;14.32;;;;;;;15.57;90.56;96078.41;3576222;40;20056;-64
2021/07/12 01:35:57;;;;;;;15.75;14.10;;;;;;;15.52;90.38;96070.50;3583968;40;20076;-66
2021/07/12 01:38:35;;;;;;;14.73;13.23;;;;;;;15.52;90.26;96067.84;3576307;40;20168;-66
2021/07/12 01:41:26;;;;;;;15.70;14.10;;;;;;;15.50;90.42;96057.50;3591978;40;20056;-66
2021/07/12 01:44:05;;;;;;;16.23;14.40;;;;;;;15.47;90.26;96062.56;3585274;40;20309;-65
2021/07/12 01:46:39;;;;;;;18.25;15.25;;;;;;;15.42;90.78;96066.06;3575177;40;20608;-66
2021/07/12 01:49:24;;;;;;;15.35;13.85;;;;;;;15.38;90.65;96065.06;3575111;40;20056;-65
2021/07/12 01:52:12;;;;;;;16.88;14.25;;;;;;;15.37;90.27;96066.94;3576395;40;20112;-65
2021/07/12 01:55:06;;;;;;;16.75;15.00;;;;;;;15.26;90.81;96068.09;3575449;40;20382;-66
2021/07/12 01:57:51;;;;;;;19.88;16.00;;;;;;;15.19;90.96;96060.47;3583393;40;20132;-66
2021/07/12 02:00:23;;;;;;;17.35;15.65;;;;;;;15.17;91.80;96065.28;3591528;40;20034;-65
2021/07/12 02:03:00;;;;;;;22.15;16.65;;;;;;;15.16;91.85;96068.22;3583005;40;20175;-65
2021/07/12 02:05:37;;;;;;;21.10;15.75;;;;;;;15.13;92.10;96063.47;3575866;40;20047;-66
2021/07/12 02:08:14;;;;;;;18.85;16.95;;;;;;;15.16;91.93;96063.69;3585071;40;20443;-66
2021/07/12 02:10:49;;;;;;;16.08;14.48;;;;;;;15.15;91.81;96061.31;3584080;40;20086;-66
2021/07/12 02:13:23;;;;;;;17.45;15.70;;;;;;;15.15;92.76;96062.09;3585074;40;20080;-66
2021/07/12 02:16:06;;;;;;;17.67;14.85;;;;;;;15.15;92.63;96066.63;3590856;39;20066;-66
2021/07/12 02:18:38;;;;;;;14.95;13.45;;;;;;;15.15;92.14;96069.28;3585446;40;20056;-66
2021/07/12 02:21:34;;;;;;;19.27;17.27;;;;;;;15.16;92.28;96069.00;3592317;39;20048;-64
2021/07/12 02:24:20;;;;;;;20.30;15.88;;;;;;;15.18;92.18;96072.16;3590557;39;20048;-66
2021/07/12 02:26:50;;;;;;;19.63;15.60;;;;;;;15.18;92.57;96076.72;3584835;40;20052;-64
2021/07/12 02:29:20;;;;;;;16.88;14.38;;;;;;;15.17;92.58;96075.13;3582937;40;20059;-66
2021/07/12 02:31:50;;;;;;;16.60;14.73;;;;;;;15.23;92.91;96071.31;3585057;40;20100;-64
2021/07/12 02:34:21;;;;;;;18.52;16.75;;;;;;;15.22;92.74;96069.75;3575603;40;20057;-64
2021/07/12 02:36:53;;;;;;;18.45;15.80;;;;;;;15.21;92.16;96081.44;3592192;39;20048;-64
2021/07/12 02:39:33;;;;;;;17.25;15.48;;;;;;;15.16;91.67;96086.81;3583064;40;20041;-65
2021/07/12 02:42:09;;;;;;;15.85;14.43;;;;;;;15.12;91.32;96091.91;3591972;39;20044;-65
2021/07/12 02:44:44;;;;;;;18.27;14.95;;;;;;;15.10;91.41;96091.38;3583823;40;20053;-65
2021/07/12 02:47:13;;;;;;;27.77;16.92;;;;;;;15.02;92.04;96091.97;3583950;39;20063;-65
2021/07/12 02:49:43;;;;;;;18.25;16.35;;;;;;;14.95;92.19;96086.22;3576951;40;20050;-66
2021/07/12 02:52:57;;;;;;;17.92;16.33;;;;;;;14.98;92.78;96098.94;3574475;40;20395;-65
2021/07/12 02:55:25;;;;;;;18.25;16.45;;;;;;;14.95;92.21;96102.16;3584918;40;20158;-65
2021/07/12 02:57:54;;;;;;;18.10;16.27;;;;;;;14.98;92.16;96105.03;3585097;40;20048;-65
2021/07/12 03:00:22;;;;;;;19.75;15.90;;;;;;;14.98;92.70;96107.69;3575925;40;20397;-65
2021/07/12 03:02:50;;;;;;;18.60;16.73;;;;;;;15.03;92.72;96115.63;3591680;39;20055;-64
2021/07/12 03:05:18;;;;;;;20.45;16.88;;;;;;;15.07;93.46;96129.94;3572525;40;20056;-65
2021/07/12 03:08:00;;;;;;;20.88;17.10;;;;;;;15.11;93.46;96132.03;3575557;40;20050;-64
2021/07/12 03:10:30;;;;;;;21.33;16.58;;;;;;;15.17;93.30;96136.22;3592003;39;20067;-64
2021/07/12 03:13:01;;;;;;;18.45;16.30;;;;;;;15.28;93.88;96147.53;3585059;40;20227;-65
2021/07/12 03:15:44;;;;;;;19.85;17.75;;;;;;;15.34;93.11;96141.91;3575138;40;20058;-65
2021/07/12 03:18:23;;;;;;;16.00;14.38;;;;;;;15.43;92.54;96136.78;3575626;40;20047;-64
2021/07/12 03:20:52;;;;;;;18.55;16.42;;;;;;;15.48;92.45;96138.59;3584689;40;20056;-65
2021/07/12 03:23:22;;;;;;;17.35;15.15;;;;;;;15.52;92.31;96142.28;3580310;40;20082;-64
2021/07/12 03:25:55;;;;;;;16.98;15.27;;;;;;;15.61;92.19;96145.13;3584760;40;20045;-64
2021/07/12 03:28:27;;;;;;;16.90;13.88;;;;;;;15.68;90.70;96143.72;3584677;40;20048;-65
2021/07/12 03:30:55;;;;;;;18.00;15.70;;;;;;;15.77;91.47;96143.09;3591654;39;20351;-64
2021/07/12 03:33:26;;;;;;;15.85;14.10;;;;;;;15.84;91.14;96138.19;3582792;40;20228;-64
2021/07/12 03:35:55;;;;;;;18.88;15.75;;;;;;;15.91;90.26;96136.03;3584089;40;20060;-65
2021/07/12 03:38:24;;;;;;;19.02;17.13;;;;;;;16.01;91.59;96135.09;3583327;40;20048;-65
2021/07/12 03:40:53;;;;;;;16.33;13.13;;;;;;;16.10;90.73;96129.94;3584560;40;20070;-65
2021/07/12 03:43:23;;;;;;;18.67;16.70;;;;;;;16.23;90.89;96129.25;3575458;40;20062;-65
2021/07/12 03:45:57;;;;;;;15.70;14.25;;;;;;;16.34;90.64;96123.78;3574631;40;20088;-65
2021/07/12 03:48:44;;;;;;;18.38;14.20;;;;;;;16.43;89.68;96130.06;3581944;40;20074;-65
2021/07/12 03:51:26;;;;;;;14.52;13.23;;;;;;;17.05;87.74;96121.13;3582680;40;20036;-64
2021/07/12 03:54:00;;;;;;;;;;;;;;;17.05;86.32;96129.13;3574548;40;20045;-65
2021/07/12 03:56:28;;;;;;;14.23;12.82;;;;;;;17.05;87.03;96131.78;3587499;39;19936;-65
2021/07/12 03:58:55;;;;;;;12.52;11.23;;;;;;;17.07;86.13;96132.28;3585563;40;20052;-64
2021/07/12 04:01:24;;;;;;;14.05;12.75;;;;;;;17.09;87.41;96140.03;3575252;40;20058;-64
2021/07/12 04:03:54;;;;;;;14.20;12.73;;;;;;;17.14;86.11;96151.38;3575381;40;20048;-64
2021/07/12 04:06:22;;;;;;;15.25;13.73;;;;;;;17.15;85.94;96160.97;3582998;40;20040;-64
2021/07/12 04:08:50;;;;;;;16.67;14.48;;;;;;;17.18;86.27;96160.38;3574647;40;20056;-65
2021/07/12 04:11:18;;;;;;;14.52;13.15;;;;;;;17.20;86.46;96154.75;3583926;40;20052;-64
2021/07/12 04:13:47;;;;;;;13.40;11.30;;;;;;;17.18;85.87;96138.25;3581403;40;20054;-64
2021/07/12 04:16:15;;;;;;;14.77;13.20;;;;;;;17.17;86.37;96134.78;3583987;40;20059;-64
2021/07/12 04:18:43;;;;;;;13.35;12.18;;;;;;;17.14;86.84;96134.59;3574600;40;20503;-64
2021/07/12 04:21:13;;;;;;;12.13;11.00;;;;;;;17.15;85.77;96134.31;3591422;39;20070;-64
2021/07/12 04:23:41;;;;;;;14.77;12.55;;;;;;;17.18;85.84;96131.03;3591584;39;20383;-64
2021/07/12 04:26:09;;;;;;;14.88;13.43;;;;;;;17.17;86.01;96126.78;3574189;40;20351;-64
2021/07/12 04:28:36;;;;;;;13.43;12.07;;;;;;;17.20;86.27;96134.22;3575110;40;20461;-64
2021/07/12 04:31:05;;;;;;;14.30;13.02;;;;;;;17.24;85.83;96128.31;3584172;40;20043;-64
2021/07/12 04:33:33;;;;;;;13.07;11.88;;;;;;;17.24;86.14;96130.97;3574731;40;20078;-64
2021/07/12 04:36:00;;;;;;;13.55;11.15;;;;;;;17.35;85.83;96127.03;3590786;39;20056;-64
2021/07/12 04:38:28;;;;;;;16.42;11.63;;;;;;;17.45;85.01;96132.19;3581930;40;20065;-64
2021/07/12 04:40:56;;;;;;;13.85;11.27;;;;;;;17.54;85.87;96134.97;3584098;40;20059;-64
2021/07/12 04:43:25;;;;;;;13.77;12.35;;;;;;;17.61;85.80;96140.69;3584069;40;20044;-64
2021/07/12 04:45:53;;;;;;;12.95;11.68;;;;;;;17.65;85.29;96152.34;3579907;40;20052;-64
2021/07/12 04:48:21;;;;;;;14.45;12.88;;;;;;;17.68;86.17;96157.13;3589020;39;20060;-65
2021/07/12 04:50:48;;;;;;;11.20;10.30;;;;;;;17.72;85.54;96162.66;3585609;40;20048;-65
2021/07/12 04:53:16;;;;;;;16.30;11.25;;;;;;;17.73;84.19;96164.22;3585158;40;20053;-64
2021/07/12 04:55:44;;;;;;;12.07;10.98;;;;;;;17.75;84.81;96167.41;3591366;40;20048;-66
2021/07/12 04:58:11;;;;;;;12.07;10.40;;;;;;;17.79;85.25;96160.38;3575873;40;20053;-64
2021/07/12 05:00:39;;;;;;;11.75;9.90;;;;;;;17.83;85.36;96158.69;3573818;40;20054;-64
2021/07/12 05:03:07;;;;;;;12.40;10.85;;;;;;;17.85;84.85;96157.59;3592529;39;20041;-64
2021/07/12 05:05:35;;;;;;;13.75;12.27;;;;;;;17.92;84.59;96139.31;3575449;40;20059;-64
2021/07/12 05:08:03;;;;;;;12.48;11.20;;;;;;;17.96;83.20;96142.97;3591734;39;20048;-64
2021/07/12 05:10:31;;;;;;;14.57;10.27;;;;;;;18.05;82.59;96141.22;3592956;39;20073;-64
2021/07/12 05:12:59;;;;;;;14.05;11.27;;;;;;;18.09;83.05;96123.53;3585813;40;20436;-64
2021/07/12 05:15:27;;;;;;;12.50;10.25;;;;;;;18.09;82.44;96118.19;3576546;40;20530;-64
2021/07/12 05:17:54;;;;;;;10.60;9.60;;;;;;;18.07;82.03;96120.34;3592814;39;20041;-64
2021/07/12 05:20:22;;;;;;;11.52;10.23;;;;;;;18.03;82.68;96134.59;3585136;39;20424;-64
2021/07/12 05:22:50;;;;;;;12.98;11.77;;;;;;;17.98;83.01;96135.50;3583315;40;20050;-64
2021/07/12 05:25:18;;;;;;;12.73;11.52;;;;;;;17.91;81.34;96122.53;3575389;40;20309;-64
2021/07/12 05:27:48;;;;;;;12.93;11.10;;;;;;;17.83;82.46;96121.34;3576334;40;20053;-64
2021/07/12 05:30:16;;;;;;;13.05;11.60;;;;;;;17.82;82.51;96109.06;3585561;40;20054;-65
2021/07/12 05:32:44;;;;;;;14.65;11.60;;;;;;;17.79;82.92;96108.88;3583576;40;20383;-65
2021/07/12 05:35:13;;;;;;;15.73;12.13;;;;;;;17.77;83.93;96106.53;3574787;40;20052;-65
2021/07/12 05:37:41;;;;;;;17.98;12.82;;;;;;;17.77;83.33;96111.88;3585095;40;20045;-65
2021/07/12 05:40:09;;;;;;;15.88;14.40;;;;;;;17.78;85.19;96101.97;3576157;40;20048;-65
2021/07/12 05:42:37;;;;;;;14.95;13.43;;;;;;;17.73;85.97;96104.72;3580223;40;20052;-64
2021/07/12 05:45:06;;;;;;;14.73;13.23;;;;;;;17.77;86.22;96106.53;3575787;40;20043;-65
2021/07/12 05:47:34;;;;;;;15.32;13.80;;;;;;;17.82;86.00;96114.41;3584912;40;20052;-64
2021/07/12 05:50:03;;;;;;;18.52;14.98;;;;;;;17.86;85.25;96119.16;3592202;39;20037;-65
2021/07/12 05:52:32;;;;;;;19.33;15.20;;;;;;;17.86;86.23;96125.28;3583521;40;20040;-64
2021/07/12 05:54:59;;;;;;;18.60;15.77;;;;;;;17.87;85.84;96120.75;3585313;40;20286;-64
2021/07/12 05:57:27;;;;;;;17.92;14.27;;;;;;;17.89;86.39;96131.91;3593037;39;20044;-64
2021/07/12 05:59:55;;;;;;;16.75;14.63;;;;;;;17.98;84.82;96132.84;3591548;39;20143;-64
2021/07/12 06:02:23;;;;;;;16.08;14.52;;;;;;;18.08;85.29;96126.50;3575193;40;20044;-64
2021/07/12 06:04:50;;;;;;;15.68;14.00;;;;;;;18.21;83.88;96130.22;3585053;40;20041;-64
2021/07/12 06:07:18;;;;;;;15.00;13.50;;;;;;;18.38;83.74;96125.06;3568546;40;20050;-64
2021/07/12 06:09:46;;;;;;;17.92;15.95;;;;;;;18.52;83.81;96122.34;3584444;40;20055;-64
2021/07/12 06:12:14;;;;;;;15.63;13.23;;;;;;;18.67;82.41;96110.50;3582475;40;20059;-65
2021/07/12 06:14:43;;;;;;;23.27;15.38;;;;;;;18.89;81.56;96115.06;3574548;40;20528;-65
2021/07/12 06:17:10;;;;;;;15.35;13.75;;;;;;;19.07;81.52;96115.22;3579144;40;20052;-65
2021/07/12 06:19:39;;;;;;;16.55;14.40;;;;;;;19.19;79.99;96115.44;3584864;39;20448;-65
2021/07/12 06:22:07;;;;;;;17.58;14.75;;;;;;;19.28;80.89;96117.38;3575212;40;20049;-65
2021/07/12 06:24:35;;;;;;;16.20;14.70;;;;;;;19.43;80.27;96121.53;3593210;39;20402;-65
2021/07/12 06:27:03;;;;;;;16.08;14.48;;;;;;;19.50;78.90;96130.69;3585137;40;20092;-65
2021/07/12 06:29:31;;;;;;;15.93;13.63;;;;;;;19.51;78.18;96123.44;3585086;40;20335;-65
2021/07/12 06:31:59;;;;;;;15.70;13.98;;;;;;;19.51;77.95;96128.78;3576523;40;20062;-65
2021/07/12 06:34:27;;;;;;;16.52;13.85;;;;;;;19.56;76.65;96131.34;3585160;39;20405;-65
2021/07/12 06:36:55;;;;;;;15.60;14.05;;;;;;;19.56;77.28;96134.03;3584209;40;20049;-65
2021/07/12 06:39:22;;;;;;;16.10;14.70;;;;;;;19.61;77.64;96136.56;3567382;40;20044;-65
2021/07/12 06:41:50;;;;;;;16.25;12.98;;;;;;;19.56;76.21;96122.56;3585592;40;20044;-65
2021/07/12 06:44:18;;;;;;;15.27;13.77;;;;;;;19.54;76.27;96130.09;3581882;40;20123;-65
2021/07/12 06:46:49;;;;;;;14.27;12.73;;;;;;;19.51;75.86;96131.47;3584701;40;20074;-65
2021/07/12 06:49:20;;;;;;;14.60;13.13;;;;;;;19.48;76.78;96130.22;3584890;40;20052;-65
2021/07/12 06:51:49;;;;;;;15.65;13.25;;;;;;;19.51;76.79;96134.16;3584708;40;20059;-66
2021/07/12 06:54:17;;;;;;;15.60;14.20;;;;;;;19.46;76.41;96132.41;3575567;40;20376;-65
2021/07/12 06:56:45;;;;;;;17.88;12.98;;;;;;;19.39;76.95;96133.94;3575369;40;20042;-64
2021/07/12 06:59:13;;;;;;;15.32;13.70;;;;;;;19.32;77.41;96129.03;3580835;40;20058;-64
2021/07/12 07:01:44;;;;;;;16.60;13.85;;;;;;;19.26;77.31;96138.28;3575476;40;20420;-65
2021/07/12 07:04:13;;;;;;;13.90;12.40;;;;;;;19.28;76.81;96134.19;3585187;40;20075;-65
2021/07/12 07:06:42;;;;;;;14.18;12.77;;;;;;;19.26;75.90;96136.38;3582070;40;20047;-64
2021/07/12 07:09:10;;;;;;;18.10;13.82;;;;;;;19.21;76.70;96126.59;3584585;40;20052;-65
2021/07/12 07:11:38;;;;;;;15.25;13.75;;;;;;;19.12;77.46;96125.78;3591530;39;20052;-64
2021/07/12 07:14:06;;;;;;;14.95;13.07;;;;;;;19.11;78.15;96126.09;3584898;39;20205;-65
2021/07/12 07:16:35;;;;;;;15.07;13.70;;;;;;;19.14;78.01;96123.59;3575603;40;20040;-65
2021/07/12 07:19:03;;;;;;;14.73;13.50;;;;;;;19.10;77.55;96122.63;3585018;40;20047;-64
2021/07/12 07:21:32;;;;;;;16.55;14.77;;;;;;;19.11;78.39;96118.06;3584693;40;20059;-64
2021/07/12 07:23:59;;;;;;;15.35;13.88;;;;;;;19.10;78.32;96122.63;3585468;40;20415;-65
2021/07/12 07:26:27;;;;;;;14.77;13.32;;;;;;;19.12;79.03;96111.63;3583880;39;20043;-65
2021/07/12 07:28:57;;;;;;;20.30;14.65;;;;;;;19.11;78.27;96118.06;3584553;39;20333;-65
2021/07/12 07:31:25;;;;;;;16.08;14.57;;;;;;;19.07;78.19;96112.56;3584508;40;20048;-65
2021/07/12 07:33:53;;;;;;;15.18;13.88;;;;;;;19.04;79.27;96108.59;3584788;39;20048;-65
2021/07/12 07:36:21;;;;;;;16.98;14.93;;;;;;;19.01;78.79;96111.88;3572724;40;20062;-65
2021/07/12 07:38:48;;;;;;;15.75;14.10;;;;;;;18.92;78.58;96102.97;3583411;40;20449;-65
2021/07/12 07:41:19;;;;;;;16.92;13.98;;;;;;;18.93;79.96;96112.56;3582821;40;20044;-65
2021/07/12 07:43:46;;;;;;;15.57;13.98;;;;;;;18.99;80.18;96122.09;3585477;40;20279;-65
2021/07/12 07:46:14;;;;;;;15.85;14.15;;;;;;;19.07;79.73;96123.25;3580243;40;20076;-65
2021/07/12 07:48:43;;;;;;;14.98;13.68;;;;;;;19.11;80.12;96128.75;3575652;40;20052;-65
2021/07/12 07:51:11;;;;;;;15.38;13.88;;;;;;;19.16;80.24;96128.63;3583089;40;20048;-66
2021/07/12 07:53:39;;;;;;;15.32;14.02;;;;;;;19.23;79.02;96130.88;3592453;39;20394;-65
2021/07/12 07:56:07;;;;;;;15.77;14.07;;;;;;;19.37;78.93;96131.56;3585654;39;20186;-65
2021/07/12 07:58:35;;;;;;;16.85;15.15;;;;;;;19.52;78.45;96133.84;3593688;39;20050;-64
2021/07/12 08:01:03;;;;;;;17.90;16.23;;;;;;;19.71;78.35;96129.38;3575340;40;20048;-65
2021/07/12 08:03:31;;;;;;;16.23;14.63;;;;;;;19.89;78.20;96124.88;3566948;40;20544;-65
2021/07/12 08:05:58;;;;;;;17.40;15.75;;;;;;;20.06;76.33;96124.91;3582642;40;20049;-65
2021/07/12 08:08:26;;;;;;;17.02;15.43;;;;;;;20.19;75.84;96130.47;3583725;40;20053;-65
2021/07/12 08:10:54;;;;;;;17.63;15.23;;;;;;;20.27;76.16;96119.00;3582133;40;20317;-65
2021/07/12 08:13:22;;;;;;;16.30;14.88;;;;;;;20.36;75.61;96127.03;3583966;40;20056;-66
2021/07/12 08:16:10;;;;;;;17.52;15.63;;;;;;;20.46;74.98;96123.25;3584797;40;20054;-65
2021/07/12 08:18:38;;;;;;;16.70;15.20;;;;;;;20.46;73.77;96131.28;3584775;40;20056;-65
2021/07/12 08:21:08;;;;;;;19.27;17.40;;;;;;;20.44;73.57;96121.66;3582878;40;20055;-66
2021/07/12 08:23:35;;;;;;;17.83;16.23;;;;;;;20.41;73.86;96140.28;3574019;40;20040;-66
2021/07/12 08:26:03;;;;;;;19.45;17.65;;;;;;;20.32;74.15;96132.22;3577759;40;20418;-65
2021/07/12 08:28:32;;;;;;;17.15;15.55;;;;;;;20.32;74.26;96126.84;3584023;40;20190;-65
2021/07/12 08:31:00;;;;;;;18.30;16.40;;;;;;;20.35;74.55;96128.13;3584353;40;20054;-65
2021/07/12 08:33:27;;;;;;;16.52;14.88;;;;;;;20.35;74.97;96115.53;3582364;39;20769;-65
2021/07/12 08:35:55;;;;;;;15.77;14.30;;;;;;;20.36;75.58;96117.09;3574705;40;20179;-65
2021/07/12 08:38:23;;;;;;;17.55;15.95;;;;;;;20.37;75.81;96121.34;3565280;40;20059;-64
2021/07/12 08:40:55;;;;;;;18.27;16.40;;;;;;;20.35;76.11;96120.09;3585577;40;20057;-67
2021/07/12 08:43:24;;;;;;;17.88;16.08;;;;;;;20.26;76.38;96120.09;3582149;40;20052;-66
2021/07/12 08:45:52;;;;;;;16.05;14.55;;;;;;;20.24;76.43;96124.97;3577055;40;20045;-65
2021/07/12 08:48:20;;;;;;;15.73;14.23;;;;;;;20.21;76.38;96129.06;3584044;40;20074;-65
2021/07/12 08:50:47;;;;;;;16.23;14.73;;;;;;;20.18;76.34;96124.31;3574854;40;20644;-65
2021/07/12 08:53:16;;;;;;;15.85;14.43;;;;;;;20.12;76.94;96128.25;3574644;40;20060;-65
2021/07/12 08:55:45;;;;;;;17.38;14.93;;;;;;;20.06;76.62;96129.50;3575894;40;20048;-65
2021/07/12 08:58:13;;;;;;;15.80;13.43;;;;;;;20.03;77.06;96136.28;3584054;40;20049;-65
2021/07/12 09:00:47;;;;;;;14.73;13.52;;;;;;;19.94;76.69;96136.25;3591524;39;20047;-66
2021/07/12 09:03:18;;;;;;;14.93;13.43;;;;;;;19.86;76.85;96149.56;3574690;40;20840;-65
2021/07/12 09:06:01;;;;;;;18.00;13.85;;;;;;;19.74;77.37;96150.16;3591222;40;20056;-65
2021/07/12 09:08:34;;;;;;;15.18;13.77;;;;;;;19.67;77.48;96146.03;3581586;40;20311;-65
2021/07/12 09:11:25;;;;;;;14.85;13.55;;;;;;;19.64;78.71;96145.88;3584133;40;20044;-65
2021/07/12 09:13:57;;;;;;;17.17;14.60;;;;;;;19.61;79.24;96133.09;3571522;40;20402;-65
2021/07/12 09:16:31;;;;;;;15.77;14.15;;;;;;;19.55;79.38;96140.47;3574101;40;20415;-65
2021/07/12 09:19:11;;;;;;;15.20;13.88;;;;;;;19.48;80.39;96140.91;3583736;40;20052;-65
2021/07/12 09:21:53;;;;;;;15.35;13.95;;;;;;;19.42;80.30;96134.13;3584248;40;20045;-65
2021/07/12 09:24:45;;;;;;;14.40;13.13;;;;;;;19.43;80.34;96118.84;3583327;40;20052;-66
2021/07/12 09:27:15;;;;;;;15.45;13.88;;;;;;;19.31;80.91;96106.06;3574997;40;20041;-67
2021/07/12 09:29:45;;;;;;;14.73;13.32;;;;;;;19.27;80.94;96111.22;3582530;40;20052;-66
2021/07/12 09:32:19;;;;;;;14.98;13.40;;;;;;;19.26;81.62;96128.34;3582190;40;20035;-66
2021/07/12 09:34:48;;;;;;;15.10;13.52;;;;;;;19.28;81.37;96122.72;3584444;40;20063;-65
2021/07/12 09:37:18;;;;;;;16.55;14.93;;;;;;;19.24;81.06;96109.19;3582282;40;20048;-65
2021/07/12 09:39:50;;;;;;;15.30;13.95;;;;;;;19.18;82.07;96118.41;3584515;40;20040;-66
2021/07/12 09:42:25;;;;;;;14.90;13.40;;;;;;;19.09;82.33;96128.28;3592204;39;20489;-66
2021/07/12 09:45:01;;;;;;;15.32;13.80;;;;;;;18.99;83.82;96137.31;3583454;39;20062;-66
2021/07/12 09:47:31;;;;;;;17.02;15.27;;;;;;;18.89;83.47;96149.81;3585240;40;20621;-66
2021/07/12 09:50:03;;;;;;;17.77;15.90;;;;;;;18.77;84.72;96165.59;3584822;40;20048;-66
2021/07/12 09:53:01;;;;;;;18.73;15.38;;;;;;;18.59;86.67;96178.03;3583629;40;20060;-65
2021/07/12 09:55:34;;;;;;;21.03;15.97;;;;;;;18.47;87.19;96183.88;3574208;40;20044;-66
2021/07/12 09:58:11;;;;;;;52.55;20.25;;;;;;;18.17;93.71;96155.94;3584721;40;20044;-67
2021/07/12 10:00:46;;;;;;;30.67;21.45;;;;;;;17.91;98.32;96135.06;3574999;40;20402;-65
2021/07/12 10:03:16;;;;;;;51.28;28.70;;;;;;;17.59;97.19;96150.09;3584761;40;20297;-67
2021/07/12 10:05:45;;;;;;;34.65;23.27;;;;;;;17.44;98.28;96151.16;3593570;39;20047;-67
2021/07/12 10:08:14;;;;;;;36.08;25.63;;;;;;;17.29;99.38;96149.56;3572702;40;20052;-67
2021/07/12 10:10:43;;;;;;;46.15;28.23;;;;;;;17.13;99.17;96157.81;3589463;40;20052;-68
2021/07/12 10:13:11;;;;;;;23.98;20.50;;;;;;;17.09;100.00;96153.34;3585443;40;20309;-67
2021/07/12 10:15:39;;;;;;;33.88;21.48;;;;;;;17.04;100.00;96164.88;3586165;40;20084;-68
2021/07/12 10:18:08;;;;;;;33.67;25.38;;;;;;;17.01;100.00;96160.13;3582837;40;20063;-68
2021/07/12 10:20:37;;;;;;;26.30;19.75;;;;;;;16.86;100.00;96153.91;3585934;40;20199;-67
2021/07/12 10:23:07;;;;;;;21.48;16.70;;;;;;;16.81;100.00;96183.28;3577035;40;20045;-69
2021/07/12 10:25:44;;;;;;;22.38;17.10;;;;;;;16.71;100.00;96183.44;3584885;40;20033;-70
2021/07/12 10:28:12;;;;;;;28.33;15.23;;;;;;;16.55;100.00;96180.97;3581838;40;20040;-70
2021/07/12 10:30:49;;;;;;;16.60;13.27;;;;;;;16.43;100.00;96177.97;3585331;40;20059;-70
2021/07/12 10:33:29;;;;;;;38.22;17.75;;;;;;;16.14;100.00;96170.88;3592998;39;20052;-71
2021/07/12 10:35:57;;;;;;;31.05;17.77;;;;;;;16.13;100.00;96185.25;3585234;40;20049;-71
2021/07/12 10:38:36;;;;;;;34.25;18.73;;;;;;;16.06;100.00;96174.19;3585083;39;20409;-72
2021/07/12 10:41:45;;;;;;;32.38;19.10;;;;;;;16.04;100.00;96181.66;3576155;40;20044;-73
2021/07/12 10:44:13;;;;;;;28.85;18.48;;;;;;;16.07;100.00;96192.50;3572629;40;20036;-72
2021/07/12 10:46:42;;;;;;;22.80;16.80;;;;;;;16.10;100.00;96191.16;3585467;40;20066;-72
2021/07/12 10:49:31;;;;;;;22.17;16.05;;;;;;;16.08;100.00;96195.97;3585396;40;20442;-72
2021/07/12 10:51:59;;;;;;;32.95;19.30;;;;;;;16.01;100.00;96180.34;3575158;40;20051;-71
2021/07/12 10:55:00;;;;;;;20.13;15.80;;;;;;;15.97;100.00;96177.44;3582815;39;20309;-72
2021/07/12 10:57:30;;;;;;;53.10;26.83;;;;;;;15.96;100.00;96169.75;3589955;40;20244;-72
2021/07/12 11:00:10;;;;;;;45.53;22.83;;;;;;;16.03;100.00;96161.44;3585497;40;20080;-72
2021/07/12 11:02:40;;;;;;;33.10;21.85;;;;;;;16.11;100.00;96166.13;3584827;40;20080;-73
2021/07/12 11:05:14;;;;;;;29.90;20.88;;;;;;;16.19;100.00;96162.81;3583208;39;20070;-71
2021/07/12 11:07:45;;;;;;;33.72;23.10;;;;;;;16.26;100.00;96155.28;3575148;40;20076;-73
2021/07/12 11:10:28;;;;;;;34.58;23.83;;;;;;;16.26;100.00;96146.50;3591556;40;20043;-73
2021/07/12 11:13:01;;;;;;;44.60;26.17;;;;;;;16.31;100.00;96132.34;3592239;39;20040;-73
2021/07/12 11:15:31;;;;;;;35.80;24.20;;;;;;;16.43;100.00;96140.72;3583112;40;20055;-73
2021/07/12 11:18:03;;;;;;;63.35;30.17;;;;;;;16.43;100.00;96138.81;3584511;40;20049;-74
2021/07/12 11:20:55;;;;;;;46.00;24.08;;;;;;;16.40;100.00;96136.72;3585696;40;20080;-73
2021/07/12 11:23:39;;;;;;;40.55;22.67;;;;;;;16.28;100.00;96145.16;3584738;40;20045;-73
2021/07/12 11:26:19;;;;;;;42.63;25.48;;;;;;;16.26;100.00;96147.31;3582213;40;20071;-73
2021/07/12 11:28:49;;;;;;;34.25;22.17;;;;;;;16.25;100.00;96151.03;3575087;40;20055;-74
2021/07/12 11:31:48;;;;;;;30.45;21.48;;;;;;;16.26;100.00;96149.16;3574716;40;20048;-74
2021/07/12 11:34:29;;;;;;;32.97;22.40;;;;;;;16.27;100.00;96146.22;3581744;40;20311;-74
2021/07/12 11:37:00;;;;;;;33.95;22.85;;;;;;;16.28;100.00;96161.13;3591431;39;20049;-71
2021/07/12 11:39:49;;;;;;;35.60;22.90;;;;;;;16.27;100.00;96156.06;3582867;40;20051;-72